Bewolking Meer informatie Parkstad Weather Satellite


Neerslagradar Meer informatie Parkstad Rain Snow Radar


Onweersbuien Meer informatie Parkstad Lighntning


24/7 Weercamera Meer informatie Parkstad Weathercam


Natuurbrandrisico
CBI







METAR rapporten vliegvelden

   
EHAM - Amsterdam
Gewijzigd: 25-02-2024 23:55
Helder  
Helder  
   Wind: NO 18.5 km/h
Wind: NO 18.5 km/h
Temperatuur: 6°C
Voelt als: 3°C
Dauwpunt: 4°C
Vochtigheid: 87%
Barometer: 999 hPa
Zicht: meer dan 10 km
Bewolking: Helder
EHAM 252255Z 05010KT CAVOK 06/04 Q0999 NOSIG
EBAW - Antwerpen
Gewijzigd: 25-02-2024 23:50
Wat regen mogelijk, Bewolking  
Wat regen mogelijk, Bewolking  
   Wind: ONO 18.5 km/h
Wind: ONO 18.5 km/h
Temperatuur: 6°C
Voelt als: 3°C
Dauwpunt: 3°C
Vochtigheid: 81%
Barometer: 996 hPa
Satelliet beelden: Bewolking
Zicht: meer dan 10 km
Bewolking: Licht bewolkt 1158 m,
Grotendeels bewolkt 1311 m,
Bewolking 1494 m
EBAW 252250Z AUTO 07010KT 9999 -RA FEW038/// BKN043/// OVC049/// 06/03 Q0996
EGLL - London
Gewijzigd: 25-02-2024 23:50
Wat regen mogelijk, Bewolking  
Wat regen mogelijk, Bewolking  
   Wind: NO 24.1 km/h
Wind: NO 24.1 km/h
Temperatuur: 6°C
Voelt als: 2°C
Dauwpunt: 4°C
Vochtigheid: 87%
Barometer: 995 hPa
Satelliet beelden: Bewolking
Zicht: 9 km
Bewolking: Grotendeels bewolkt 335 m,
Bewolking 610 m
EGLL 252250Z AUTO 05013KT 9000 -RA BKN011 OVC020 06/04 Q0995
ELLX - Luxemburg
Gewijzigd: 25-02-2024 23:50
Wat regen mogelijk, Grotendeels bewolkt  
Wat regen mogelijk, Grotendeels bewolkt  
   Wind: OZO 11.1 km/h
Wind: OZO 11.1 km/h
Temperatuur: 6°C
Voelt als: 4°C
Dauwpunt: 2°C
Vochtigheid: 76%
Barometer: 995 hPa
Satelliet beelden: Grotendeels bewolkt
Zicht: meer dan 10 km
Bewolking: Licht bewolkt 1189 m,
Grotendeels bewolkt 1372 m
ELLX 252250Z 11006KT 9999 -RA FEW039 BKN045 06/02 Q0995 NOSIG
EDDM - München
Gewijzigd: 25-02-2024 23:50
Gedeeltelijk bewolkt  
Gedeeltelijk bewolkt  
   Wind: ONO 5.6 km/h
Wind: ONO 5.6 km/h
Temperatuur: 2°C
Voelt als: 1°C
Dauwpunt: 1°C
Vochtigheid: 93%
Barometer: 1000 hPa
Satelliet beelden: Gedeeltelijk bewolkt
Zicht: 7 km
Bewolking: Gedeeltelijk bewolkt
EDDM 252250Z AUTO 06003KT 7000 NSC 02/01 Q1000 NOSIG
LFPO - Parijs
Gewijzigd: 26-02-2024 00:00
Grotendeels bewolkt  
Grotendeels bewolkt  
   Wind: Zuiden 5.6 km/h
Wind: Zuiden 5.6 km/h
Temperatuur: 8°C
Voelt als: 7°C
Dauwpunt: 8°C
Vochtigheid: 100%
Barometer: 988 hPa
Satelliet beelden: Grotendeels bewolkt
Zicht: 8 km
Bewolking: Grotendeels bewolkt 152 m
LFPO 252300Z 18003KT 8000 BKN005 08/08 Q0988 TEMPO 4000 -RA
EDDL - Düsseldorf
Gewijzigd: 25-02-2024 23:50
Licht bewolkt  
Licht bewolkt  
   Wind: Oosten 13 km/h
Wind: Oosten 13 km/h
Temperatuur: 6°C
Voelt als: 3°C
Dauwpunt: 2°C
Vochtigheid: 76%
Barometer: 998 hPa
Satelliet beelden: Licht bewolkt
Zicht: meer dan 10 km
Bewolking: Licht bewolkt 1463 m
EDDL 252250Z AUTO 08007KT 9999 FEW048 06/02 Q0998 NOSIG
EDDK - Köln/Bonn Duitsland
Gewijzigd: 25-02-2024 23:50
Licht bewolkt  
Licht bewolkt  
   Wind: Oosten 13 km/h
Wind: Oosten 13 km/h
Temperatuur: 7°C
Voelt als: 4°C
Dauwpunt: 1°C
Vochtigheid: 66%
Barometer: 998 hPa
Satelliet beelden: Licht bewolkt
Zicht: meer dan 10 km
Bewolking: Licht bewolkt 1311 m
EDDK 252250Z AUTO 08007KT 050V110 9999 FEW043 07/01 Q0998 NOSIG
TNCA - Oranjestad Aruba
Gewijzigd: 26-02-2024 00:00
Licht bewolkt  
Licht bewolkt  
   Wind: ONO 22.2 km/h
Wind: ONO 22.2 km/h
Temperatuur: 27°C
Gevoelstemperatuur: 29°C
Dauwpunt: 23°C
Vochtigheid: 79%
Barometer: 1014 hPa
Satelliet beelden: Licht bewolkt
Zicht: meer dan 10 km
Bewolking: Licht bewolkt 549 m
TNCA 252300Z 07012KT 9999 FEW018 27/23 Q1014 NOSIG
TNCC - Willemstad Curacao
Gewijzigd: 25-02-2024 23:00
Licht bewolkt  
Licht bewolkt  
   Wind: Oosten 16.7 km/h
Wind: Oosten 16.7 km/h
Temperatuur: 28°C
Gevoelstemperatuur: 31°C
Dauwpunt: 23°C
Vochtigheid: 74%
Barometer: 1013 hPa
Satelliet beelden: Licht bewolkt
Zicht: meer dan 10 km
Bewolking: Licht bewolkt 549 m
TNCC 252200Z 10009KT 9999 FEW018 28/23 Q1013 NOSIG=
LEAL - La Nucia Spanje
Gewijzigd: 26-02-2024 00:00
Helder  
Helder  
   Wind: ZZW 14.8 km/h
Wind: ZZW 14.8 km/h
Temperatuur: 14°C
Dauwpunt: 7°C
Vochtigheid: 63%
Barometer: 1007 hPa
Zicht: meer dan 10 km
Bewolking: Helder
LEAL 252300Z 21008KT 170V240 CAVOK 14/07 Q1007 WS R10 NOSIG
 

Script ontwikkeld door  Saratoga-weather.org Aangepast voor de template door  Weerstation Leuven

U vindt ons ook hier:

Het Weer Aktueel

WOW Nederland KNMI

Vereniging voor Weerkunde en Klimatologie

UK Met Office Weather Observation Website (WOW)

WeatherCloud

Weather Underground

Awekas

MeteoMap.Cloud

HAMweather, WeatherForYou, PWS Weather

Citizen Weather Observer Program (CWOP)

Apparatuur in gebruik:

Hardwareleverancier
Weerhuisje

Weerstation
Vantage Pro2+ UV

Weercomputer's
alix3d2 & wl330n

Weerprogramma's
Smartbedded

Satelliet NOAA's
WRX137 & KX137

Satelliet Eumetsat
Ayecka SR1 & Triax

Bliksemdetectie
Boltek StormTracker

Webleverancier
F-Service

Weerhuisje

Vantage Pro2+ UV

alix3d2 & wl330n

Smartbedded

WRX137 & KX137

Ayecka SR1 & Triax

Boltek StormTracker

F-Service